sensor_id;sensor_type;location;lat;lon;timestamp;P1;durP1;ratioP1;P2;durP2;ratioP2
21432;SDS011;18592;49.708;10.900;2023-09-12T00:00:17;9.23;;;8.18;;
21432;SDS011;18592;49.708;10.900;2023-09-12T00:02:27;8.93;;;8.02;;
21432;SDS011;18592;49.708;10.900;2023-09-12T00:04:29;8.88;;;7.60;;
21432;SDS011;18592;49.708;10.900;2023-09-12T00:06:41;7.95;;;6.57;;
21432;SDS011;18592;49.708;10.900;2023-09-12T00:08:43;8.77;;;6.93;;
21432;SDS011;18592;49.708;10.900;2023-09-12T00:11:05;9.63;;;7.65;;
21432;SDS011;18592;49.708;10.900;2023-09-12T00:13:19;10.13;;;7.68;;
21432;SDS011;18592;49.708;10.900;2023-09-12T00:15:26;9.60;;;7.25;;
21432;SDS011;18592;49.708;10.900;2023-09-12T00:17:37;8.27;;;7.43;;
21432;SDS011;18592;49.708;10.900;2023-09-12T00:19:46;8.77;;;7.85;;
21432;SDS011;18592;49.708;10.900;2023-09-12T00:21:50;8.25;;;7.45;;
21432;SDS011;18592;49.708;10.900;2023-09-12T00:24:01;8.77;;;7.40;;
21432;SDS011;18592;49.708;10.900;2023-09-12T00:26:02;9.05;;;8.02;;
21432;SDS011;18592;49.708;10.900;2023-09-12T00:28:08;9.48;;;7.78;;
21432;SDS011;18592;49.708;10.900;2023-09-12T00:30:08;11.18;;;7.90;;
21432;SDS011;18592;49.708;10.900;2023-09-12T00:32:16;8.23;;;7.28;;
21432;SDS011;18592;49.708;10.900;2023-09-12T00:34:25;8.55;;;7.75;;
21432;SDS011;18592;49.708;10.900;2023-09-12T00:36:27;9.05;;;8.10;;
21432;SDS011;18592;49.708;10.900;2023-09-12T00:38:42;9.18;;;8.30;;
21432;SDS011;18592;49.708;10.900;2023-09-12T00:40:43;10.50;;;8.10;;
21432;SDS011;18592;49.708;10.900;2023-09-12T00:42:56;14.15;;;8.35;;
21432;SDS011;18592;49.708;10.900;2023-09-12T00:45:06;8.18;;;7.38;;
21432;SDS011;18592;49.708;10.900;2023-09-12T00:47:18;8.88;;;7.97;;
21432;SDS011;18592;49.708;10.900;2023-09-12T00:49:28;7.88;;;7.13;;
21432;SDS011;18592;49.708;10.900;2023-09-12T00:51:35;8.32;;;6.90;;
21432;SDS011;18592;49.708;10.900;2023-09-12T00:53:37;7.68;;;6.95;;
21432;SDS011;18592;49.708;10.900;2023-09-12T00:55:54;7.43;;;6.72;;
21432;SDS011;18592;49.708;10.900;2023-09-12T00:58:12;8.23;;;7.43;;
21432;SDS011;18592;49.708;10.900;2023-09-12T01:00:15;7.32;;;6.63;;
21432;SDS011;18592;49.708;10.900;2023-09-12T01:02:20;7.20;;;6.50;;
21432;SDS011;18592;49.708;10.900;2023-09-12T01:04:30;7.90;;;7.07;;
21432;SDS011;18592;49.708;10.900;2023-09-12T01:06:35;8.05;;;7.25;;
21432;SDS011;18592;49.708;10.900;2023-09-12T01:08:38;9.52;;;7.07;;
21432;SDS011;18592;49.708;10.900;2023-09-12T01:10:40;9.40;;;6.93;;
21432;SDS011;18592;49.708;10.900;2023-09-12T01:13:03;7.30;;;6.53;;
21432;SDS011;18592;49.708;10.900;2023-09-12T01:15:04;7.70;;;6.63;;
21432;SDS011;18592;49.708;10.900;2023-09-12T01:17:13;8.40;;;6.65;;
21432;SDS011;18592;49.708;10.900;2023-09-12T01:19:23;7.03;;;6.15;;
21432;SDS011;18592;49.708;10.900;2023-09-12T01:24:07;6.10;;;5.50;;
21432;SDS011;18592;49.708;10.900;2023-09-12T01:28:18;6.18;;;4.78;;
21432;SDS011;18592;49.708;10.900;2023-09-12T01:30:23;5.40;;;4.82;;
21432;SDS011;18592;49.708;10.900;2023-09-12T01:32:40;4.78;;;4.38;;
21432;SDS011;18592;49.708;10.900;2023-09-12T01:34:43;5.18;;;4.03;;
21432;SDS011;18592;49.708;10.900;2023-09-12T01:36:45;4.80;;;4.40;;
21432;SDS011;18592;49.708;10.900;2023-09-12T01:38:47;5.97;;;4.75;;
21432;SDS011;18592;49.708;10.900;2023-09-12T01:40:56;4.88;;;4.43;;
21432;SDS011;18592;49.708;10.900;2023-09-12T01:43:08;4.32;;;3.92;;
21432;SDS011;18592;49.708;10.900;2023-09-12T01:45:17;4.53;;;4.13;;
21432;SDS011;18592;49.708;10.900;2023-09-12T01:47:33;5.20;;;4.68;;
21432;SDS011;18592;49.708;10.900;2023-09-12T01:49:37;5.03;;;4.13;;
21432;SDS011;18592;49.708;10.900;2023-09-12T01:52:02;5.78;;;4.30;;
21432;SDS011;18592;49.708;10.900;2023-09-12T01:54:04;4.93;;;4.38;;
21432;SDS011;18592;49.708;10.900;2023-09-12T01:56:15;4.65;;;4.25;;
21432;SDS011;18592;49.708;10.900;2023-09-12T01:58:25;5.13;;;4.70;;
21432;SDS011;18592;49.708;10.900;2023-09-12T02:00:27;6.13;;;5.10;;
21432;SDS011;18592;49.708;10.900;2023-09-12T02:02:39;5.63;;;5.13;;
21432;SDS011;18592;49.708;10.900;2023-09-12T02:05:08;6.20;;;5.65;;
21432;SDS011;18592;49.708;10.900;2023-09-12T02:07:21;6.38;;;5.78;;
21432;SDS011;18592;49.708;10.900;2023-09-12T02:09:39;6.20;;;5.60;;
21432;SDS011;18592;49.708;10.900;2023-09-12T02:11:50;6.07;;;5.47;;
21432;SDS011;18592;49.708;10.900;2023-09-12T02:13:52;6.60;;;5.55;;
21432;SDS011;18592;49.708;10.900;2023-09-12T02:16:01;6.28;;;5.65;;
21432;SDS011;18592;49.708;10.900;2023-09-12T02:18:13;6.60;;;6.00;;
21432;SDS011;18592;49.708;10.900;2023-09-12T02:20:25;7.10;;;5.90;;
21432;SDS011;18592;49.708;10.900;2023-09-12T02:22:34;6.30;;;5.70;;
21432;SDS011;18592;49.708;10.900;2023-09-12T02:24:35;5.97;;;5.38;;
21432;SDS011;18592;49.708;10.900;2023-09-12T02:26:36;7.45;;;6.38;;
21432;SDS011;18592;49.708;10.900;2023-09-12T02:28:49;6.63;;;6.03;;
21432;SDS011;18592;49.708;10.900;2023-09-12T02:30:59;8.32;;;6.03;;
21432;SDS011;18592;49.708;10.900;2023-09-12T02:33:11;6.75;;;6.00;;
21432;SDS011;18592;49.708;10.900;2023-09-12T02:35:17;7.25;;;6.55;;
21432;SDS011;18592;49.708;10.900;2023-09-12T02:37:19;8.65;;;6.00;;
21432;SDS011;18592;49.708;10.900;2023-09-12T02:39:32;7.07;;;6.18;;
21432;SDS011;18592;49.708;10.900;2023-09-12T02:41:42;6.97;;;5.55;;
21432;SDS011;18592;49.708;10.900;2023-09-12T02:43:42;6.72;;;6.03;;
21432;SDS011;18592;49.708;10.900;2023-09-12T02:45:43;6.13;;;5.60;;
21432;SDS011;18592;49.708;10.900;2023-09-12T02:47:47;6.10;;;5.50;;
21432;SDS011;18592;49.708;10.900;2023-09-12T02:49:48;6.18;;;5.57;;
21432;SDS011;18592;49.708;10.900;2023-09-12T02:51:57;6.57;;;5.70;;
21432;SDS011;18592;49.708;10.900;2023-09-12T02:54:06;5.75;;;5.13;;
21432;SDS011;18592;49.708;10.900;2023-09-12T02:56:21;6.78;;;5.03;;
21432;SDS011;18592;49.708;10.900;2023-09-12T02:58:22;6.25;;;5.15;;
21432;SDS011;18592;49.708;10.900;2023-09-12T03:00:29;4.85;;;4.45;;
21432;SDS011;18592;49.708;10.900;2023-09-12T03:02:44;5.13;;;4.57;;
21432;SDS011;18592;49.708;10.900;2023-09-12T03:04:45;5.03;;;4.53;;
21432;SDS011;18592;49.708;10.900;2023-09-12T03:06:46;4.60;;;4.20;;
21432;SDS011;18592;49.708;10.900;2023-09-12T03:08:47;4.25;;;3.85;;
21432;SDS011;18592;49.708;10.900;2023-09-12T03:10:53;4.55;;;4.15;;
21432;SDS011;18592;49.708;10.900;2023-09-12T03:12:57;4.28;;;3.88;;
21432;SDS011;18592;49.708;10.900;2023-09-12T03:14:58;4.60;;;4.20;;
21432;SDS011;18592;49.708;10.900;2023-09-12T03:16:59;4.65;;;4.25;;
21432;SDS011;18592;49.708;10.900;2023-09-12T03:19:07;4.18;;;3.88;;
21432;SDS011;18592;49.708;10.900;2023-09-12T03:21:07;5.07;;;4.60;;
21432;SDS011;18592;49.708;10.900;2023-09-12T03:23:09;5.22;;;4.72;;
21432;SDS011;18592;49.708;10.900;2023-09-12T03:25:11;6.97;;;5.70;;
21432;SDS011;18592;49.708;10.900;2023-09-12T03:27:12;7.07;;;6.05;;
21432;SDS011;18592;49.708;10.900;2023-09-12T03:29:13;9.45;;;5.88;;
21432;SDS011;18592;49.708;10.900;2023-09-12T03:31:13;10.40;;;6.57;;
21432;SDS011;18592;49.708;10.900;2023-09-12T03:33:16;7.25;;;6.55;;
21432;SDS011;18592;49.708;10.900;2023-09-12T03:35:17;7.03;;;6.43;;
21432;SDS011;18592;49.708;10.900;2023-09-12T03:37:19;7.93;;;6.47;;
21432;SDS011;18592;49.708;10.900;2023-09-12T03:39:20;7.55;;;6.85;;
21432;SDS011;18592;49.708;10.900;2023-09-12T03:41:30;7.03;;;6.43;;
21432;SDS011;18592;49.708;10.900;2023-09-12T03:54:24;7.15;;;6.18;;
21432;SDS011;18592;49.708;10.900;2023-09-12T03:56:26;6.85;;;6.25;;
21432;SDS011;18592;49.708;10.900;2023-09-12T03:58:31;7.78;;;6.25;;
21432;SDS011;18592;49.708;10.900;2023-09-12T04:00:32;7.07;;;6.38;;
21432;SDS011;18592;49.708;10.900;2023-09-12T04:02:32;6.35;;;5.75;;
21432;SDS011;18592;49.708;10.900;2023-09-12T04:04:32;6.65;;;5.38;;
21432;SDS011;18592;49.708;10.900;2023-09-12T04:06:33;6.25;;;5.65;;
21432;SDS011;18592;49.708;10.900;2023-09-12T04:08:33;6.57;;;5.55;;
21432;SDS011;18592;49.708;10.900;2023-09-12T04:10:34;7.53;;;5.38;;
21432;SDS011;18592;49.708;10.900;2023-09-12T04:12:34;5.97;;;5.38;;
21432;SDS011;18592;49.708;10.900;2023-09-12T04:14:35;6.50;;;5.55;;
21432;SDS011;18592;49.708;10.900;2023-09-12T04:16:37;5.85;;;5.35;;
21432;SDS011;18592;49.708;10.900;2023-09-12T04:18:38;6.20;;;5.60;;
21432;SDS011;18592;49.708;10.900;2023-09-12T04:20:38;5.50;;;5.00;;
21432;SDS011;18592;49.708;10.900;2023-09-12T04:22:44;5.50;;;5.00;;
21432;SDS011;18592;49.708;10.900;2023-09-12T04:24:45;6.05;;;5.32;;
21432;SDS011;18592;49.708;10.900;2023-09-12T04:26:45;6.70;;;6.10;;
21432;SDS011;18592;49.708;10.900;2023-09-12T04:28:47;6.80;;;6.20;;
21432;SDS011;18592;49.708;10.900;2023-09-12T04:30:47;6.43;;;5.93;;
21432;SDS011;18592;49.708;10.900;2023-09-12T04:32:48;6.65;;;5.95;;
21432;SDS011;18592;49.708;10.900;2023-09-12T04:34:49;7.63;;;6.80;;
21432;SDS011;18592;49.708;10.900;2023-09-12T04:36:50;7.25;;;6.55;;
21432;SDS011;18592;49.708;10.900;2023-09-12T04:38:51;8.00;;;7.10;;
21432;SDS011;18592;49.708;10.900;2023-09-12T04:40:57;7.70;;;6.10;;
21432;SDS011;18592;49.708;10.900;2023-09-12T04:43:02;6.93;;;6.22;;
21432;SDS011;18592;49.708;10.900;2023-09-12T04:45:16;8.10;;;7.03;;
21432;SDS011;18592;49.708;10.900;2023-09-12T04:47:16;7.55;;;6.65;;
21432;SDS011;18592;49.708;10.900;2023-09-12T04:49:20;8.32;;;6.05;;
21432;SDS011;18592;49.708;10.900;2023-09-12T04:51:21;6.93;;;6.22;;
21432;SDS011;18592;49.708;10.900;2023-09-12T04:53:21;7.53;;;6.68;;
21432;SDS011;18592;49.708;10.900;2023-09-12T04:55:21;8.75;;;6.95;;
21432;SDS011;18592;49.708;10.900;2023-09-12T04:57:22;7.65;;;6.95;;
21432;SDS011;18592;49.708;10.900;2023-09-12T04:59:22;7.00;;;6.30;;
21432;SDS011;18592;49.708;10.900;2023-09-12T05:01:23;7.90;;;6.80;;
21432;SDS011;18592;49.708;10.900;2023-09-12T05:03:25;7.43;;;6.72;;
21432;SDS011;18592;49.708;10.900;2023-09-12T05:05:26;7.97;;;7.18;;
21432;SDS011;18592;49.708;10.900;2023-09-12T05:07:26;8.60;;;6.53;;
21432;SDS011;18592;49.708;10.900;2023-09-12T05:09:27;6.45;;;5.85;;
21432;SDS011;18592;49.708;10.900;2023-09-12T05:11:27;7.00;;;6.30;;
21432;SDS011;18592;49.708;10.900;2023-09-12T05:13:27;6.50;;;5.78;;
21432;SDS011;18592;49.708;10.900;2023-09-12T05:15:28;6.28;;;5.68;;
21432;SDS011;18592;49.708;10.900;2023-09-12T05:17:30;8.70;;;5.82;;
21432;SDS011;18592;49.708;10.900;2023-09-12T05:19:48;8.15;;;6.18;;
21432;SDS011;18592;49.708;10.900;2023-09-12T05:21:49;7.30;;;5.90;;
21432;SDS011;18592;49.708;10.900;2023-09-12T05:23:49;7.82;;;6.03;;
21432;SDS011;18592;49.708;10.900;2023-09-12T05:25:50;9.82;;;6.78;;
21432;SDS011;18592;49.708;10.900;2023-09-12T05:27:51;9.55;;;5.90;;
21432;SDS011;18592;49.708;10.900;2023-09-12T05:29:52;8.23;;;6.57;;
21432;SDS011;18592;49.708;10.900;2023-09-12T05:31:53;7.15;;;6.50;;
21432;SDS011;18592;49.708;10.900;2023-09-12T05:33:54;6.95;;;6.28;;
21432;SDS011;18592;49.708;10.900;2023-09-12T05:35:54;6.32;;;5.72;;
21432;SDS011;18592;49.708;10.900;2023-09-12T05:37:55;8.30;;;6.30;;
21432;SDS011;18592;49.708;10.900;2023-09-12T05:39:55;6.85;;;6.15;;
21432;SDS011;18592;49.708;10.900;2023-09-12T05:41:55;6.90;;;6.20;;
21432;SDS011;18592;49.708;10.900;2023-09-12T05:44:11;6.95;;;5.95;;
21432;SDS011;18592;49.708;10.900;2023-09-12T05:46:18;7.68;;;6.10;;
21432;SDS011;18592;49.708;10.900;2023-09-12T05:48:18;7.25;;;6.15;;
21432;SDS011;18592;49.708;10.900;2023-09-12T05:50:18;7.18;;;6.30;;
21432;SDS011;18592;49.708;10.900;2023-09-12T05:52:19;7.93;;;6.47;;
21432;SDS011;18592;49.708;10.900;2023-09-12T05:54:19;7.57;;;6.25;;
21432;SDS011;18592;49.708;10.900;2023-09-12T05:56:20;8.15;;;5.82;;
21432;SDS011;18592;49.708;10.900;2023-09-12T05:58:20;8.63;;;6.03;;
21432;SDS011;18592;49.708;10.900;2023-09-12T06:00:25;6.93;;;5.78;;
21432;SDS011;18592;49.708;10.900;2023-09-12T06:02:34;6.32;;;5.72;;
21432;SDS011;18592;49.708;10.900;2023-09-12T06:04:34;7.40;;;6.03;;
21432;SDS011;18592;49.708;10.900;2023-09-12T06:06:34;9.98;;;6.20;;
21432;SDS011;18592;49.708;10.900;2023-09-12T06:08:35;10.45;;;6.47;;
21432;SDS011;18592;49.708;10.900;2023-09-12T06:10:35;8.50;;;6.63;;
21432;SDS011;18592;49.708;10.900;2023-09-12T06:12:35;8.30;;;6.55;;
21432;SDS011;18592;49.708;10.900;2023-09-12T06:14:36;9.40;;;7.03;;
21432;SDS011;18592;49.708;10.900;2023-09-12T06:16:36;8.85;;;6.78;;
21432;SDS011;18592;49.708;10.900;2023-09-12T06:18:52;7.28;;;6.55;;
21432;SDS011;18592;49.708;10.900;2023-09-12T06:20:57;8.02;;;7.13;;
21432;SDS011;18592;49.708;10.900;2023-09-12T06:22:58;11.35;;;7.60;;
21432;SDS011;18592;49.708;10.900;2023-09-12T06:24:59;11.23;;;6.97;;
21432;SDS011;18592;49.708;10.900;2023-09-12T06:26:59;7.97;;;7.10;;
21432;SDS011;18592;49.708;10.900;2023-09-12T06:29:01;7.78;;;6.97;;
21432;SDS011;18592;49.708;10.900;2023-09-12T06:31:03;9.77;;;7.35;;
21432;SDS011;18592;49.708;10.900;2023-09-12T06:33:08;8.57;;;6.70;;
21432;SDS011;18592;49.708;10.900;2023-09-12T06:35:10;7.80;;;7.00;;
21432;SDS011;18592;49.708;10.900;2023-09-12T06:37:11;8.43;;;7.43;;
21432;SDS011;18592;49.708;10.900;2023-09-12T06:39:11;8.13;;;7.32;;
21432;SDS011;18592;49.708;10.900;2023-09-12T06:41:12;7.80;;;7.00;;
21432;SDS011;18592;49.708;10.900;2023-09-12T06:43:12;8.50;;;7.43;;
21432;SDS011;18592;49.708;10.900;2023-09-12T06:45:13;10.13;;;7.55;;
21432;SDS011;18592;49.708;10.900;2023-09-12T06:47:14;10.68;;;9.05;;
21432;SDS011;18592;49.708;10.900;2023-09-12T06:49:14;8.73;;;7.70;;
21432;SDS011;18592;49.708;10.900;2023-09-12T06:51:14;9.52;;;8.27;;
21432;SDS011;18592;49.708;10.900;2023-09-12T06:53:15;9.38;;;8.43;;
21432;SDS011;18592;49.708;10.900;2023-09-12T06:55:15;10.18;;;8.48;;
21432;SDS011;18592;49.708;10.900;2023-09-12T06:57:16;12.07;;;8.32;;
21432;SDS011;18592;49.708;10.900;2023-09-12T06:59:16;9.75;;;8.60;;
21432;SDS011;18592;49.708;10.900;2023-09-12T07:01:25;11.98;;;9.02;;
21432;SDS011;18592;49.708;10.900;2023-09-12T07:03:26;11.75;;;8.85;;
21432;SDS011;18592;49.708;10.900;2023-09-12T07:05:26;10.73;;;9.55;;
21432;SDS011;18592;49.708;10.900;2023-09-12T07:07:28;10.98;;;9.60;;
21432;SDS011;18592;49.708;10.900;2023-09-12T07:09:28;11.13;;;9.30;;
21432;SDS011;18592;49.708;10.900;2023-09-12T07:11:28;10.82;;;8.77;;
21432;SDS011;18592;49.708;10.900;2023-09-12T07:13:29;11.57;;;8.65;;
21432;SDS011;18592;49.708;10.900;2023-09-12T07:15:29;9.75;;;8.52;;
21432;SDS011;18592;49.708;10.900;2023-09-12T07:17:29;11.27;;;8.10;;
21432;SDS011;18592;49.708;10.900;2023-09-12T07:19:30;9.60;;;8.25;;
21432;SDS011;18592;49.708;10.900;2023-09-12T07:21:32;9.40;;;8.30;;
21432;SDS011;18592;49.708;10.900;2023-09-12T07:23:34;8.68;;;7.80;;
21432;SDS011;18592;49.708;10.900;2023-09-12T07:25:38;10.50;;;8.07;;
21432;SDS011;18592;49.708;10.900;2023-09-12T07:27:40;10.20;;;8.43;;
21432;SDS011;18592;49.708;10.900;2023-09-12T07:29:40;8.95;;;7.80;;
21432;SDS011;18592;49.708;10.900;2023-09-12T07:31:42;9.65;;;8.65;;
21432;SDS011;18592;49.708;10.900;2023-09-12T07:33:43;8.43;;;7.63;;
21432;SDS011;18592;49.708;10.900;2023-09-12T07:35:43;9.80;;;7.82;;
21432;SDS011;18592;49.708;10.900;2023-09-12T07:37:43;9.57;;;8.57;;
21432;SDS011;18592;49.708;10.900;2023-09-12T07:39:44;9.43;;;8.32;;
21432;SDS011;18592;49.708;10.900;2023-09-12T07:41:56;12.80;;;7.97;;
21432;SDS011;18592;49.708;10.900;2023-09-12T07:44:07;9.55;;;8.35;;
21432;SDS011;18592;49.708;10.900;2023-09-12T07:46:19;9.60;;;8.25;;
21432;SDS011;18592;49.708;10.900;2023-09-12T07:48:20;9.73;;;8.25;;
21432;SDS011;18592;49.708;10.900;2023-09-12T07:50:20;11.52;;;7.95;;
21432;SDS011;18592;49.708;10.900;2023-09-12T07:52:30;8.48;;;7.63;;
21432;SDS011;18592;49.708;10.900;2023-09-12T07:54:31;9.63;;;8.45;;
21432;SDS011;18592;49.708;10.900;2023-09-12T07:56:31;9.88;;;8.55;;
21432;SDS011;18592;49.708;10.900;2023-09-12T07:58:32;8.93;;;8.10;;
21432;SDS011;18592;49.708;10.900;2023-09-12T08:00:35;9.15;;;8.25;;
21432;SDS011;18592;49.708;10.900;2023-09-12T08:02:36;9.75;;;8.45;;
21432;SDS011;18592;49.708;10.900;2023-09-12T08:04:46;8.75;;;7.90;;
21432;SDS011;18592;49.708;10.900;2023-09-12T08:06:46;10.80;;;8.60;;
21432;SDS011;18592;49.708;10.900;2023-09-12T08:08:47;9.27;;;8.38;;
21432;SDS011;18592;49.708;10.900;2023-09-12T08:10:47;9.07;;;8.18;;
21432;SDS011;18592;49.708;10.900;2023-09-12T08:12:48;9.80;;;8.27;;
21432;SDS011;18592;49.708;10.900;2023-09-12T08:14:48;10.23;;;8.85;;
21432;SDS011;18592;49.708;10.900;2023-09-12T08:16:49;8.60;;;7.55;;
21432;SDS011;18592;49.708;10.900;2023-09-12T08:18:49;10.68;;;8.50;;
21432;SDS011;18592;49.708;10.900;2023-09-12T08:20:49;9.13;;;8.32;;
21432;SDS011;18592;49.708;10.900;2023-09-12T08:22:50;8.88;;;7.97;;
21432;SDS011;18592;49.708;10.900;2023-09-12T08:24:50;8.68;;;7.88;;
21432;SDS011;18592;49.708;10.900;2023-09-12T08:26:52;9.10;;;8.30;;
21432;SDS011;18592;49.708;10.900;2023-09-12T08:29:03;9.65;;;8.60;;
21432;SDS011;18592;49.708;10.900;2023-09-12T08:31:05;9.73;;;8.50;;
21432;SDS011;18592;49.708;10.900;2023-09-12T08:33:21;9.75;;;8.48;;
21432;SDS011;18592;49.708;10.900;2023-09-12T08:35:21;9.00;;;8.02;;
21432;SDS011;18592;49.708;10.900;2023-09-12T08:37:22;9.13;;;8.10;;
21432;SDS011;18592;49.708;10.900;2023-09-12T08:39:25;9.40;;;7.90;;
21432;SDS011;18592;49.708;10.900;2023-09-12T08:41:35;10.43;;;8.45;;
21432;SDS011;18592;49.708;10.900;2023-09-12T08:43:36;8.27;;;7.35;;
21432;SDS011;18592;49.708;10.900;2023-09-12T08:45:37;9.27;;;7.93;;
21432;SDS011;18592;49.708;10.900;2023-09-12T08:47:38;9.20;;;8.15;;
21432;SDS011;18592;49.708;10.900;2023-09-12T08:49:55;10.23;;;8.70;;
21432;SDS011;18592;49.708;10.900;2023-09-12T08:51:57;8.88;;;7.97;;
21432;SDS011;18592;49.708;10.900;2023-09-12T08:53:57;9.13;;;8.23;;
21432;SDS011;18592;49.708;10.900;2023-09-12T08:55:58;10.30;;;8.50;;
21432;SDS011;18592;49.708;10.900;2023-09-12T08:58:00;9.25;;;8.38;;
21432;SDS011;18592;49.708;10.900;2023-09-12T09:00:03;9.60;;;8.30;;
21432;SDS011;18592;49.708;10.900;2023-09-12T09:02:10;8.98;;;8.18;;
21432;SDS011;18592;49.708;10.900;2023-09-12T09:04:11;9.70;;;8.73;;
21432;SDS011;18592;49.708;10.900;2023-09-12T09:06:12;8.52;;;7.75;;
21432;SDS011;18592;49.708;10.900;2023-09-12T09:08:14;9.75;;;8.65;;
21432;SDS011;18592;49.708;10.900;2023-09-12T09:10:17;8.70;;;7.70;;
21432;SDS011;18592;49.708;10.900;2023-09-12T09:12:19;10.45;;;8.13;;
21432;SDS011;18592;49.708;10.900;2023-09-12T09:14:34;12.85;;;8.50;;
21432;SDS011;18592;49.708;10.900;2023-09-12T09:16:50;10.35;;;8.07;;
21432;SDS011;18592;49.708;10.900;2023-09-12T09:18:54;9.60;;;8.70;;
21432;SDS011;18592;49.708;10.900;2023-09-12T09:21:19;10.45;;;8.70;;
21432;SDS011;18592;49.708;10.900;2023-09-12T09:23:22;10.05;;;8.55;;
21432;SDS011;18592;49.708;10.900;2023-09-12T09:25:33;8.40;;;7.60;;
21432;SDS011;18592;49.708;10.900;2023-09-12T09:27:34;9.13;;;8.23;;
21432;SDS011;18592;49.708;10.900;2023-09-12T09:29:45;12.85;;;8.60;;
21432;SDS011;18592;49.708;10.900;2023-09-12T09:32:01;9.77;;;8.02;;
21432;SDS011;18592;49.708;10.900;2023-09-12T09:34:09;9.35;;;8.40;;
21432;SDS011;18592;49.708;10.900;2023-09-12T09:36:17;9.32;;;8.23;;
21432;SDS011;18592;49.708;10.900;2023-09-12T09:38:18;9.98;;;8.57;;
21432;SDS011;18592;49.708;10.900;2023-09-12T09:40:22;8.80;;;7.90;;
21432;SDS011;18592;49.708;10.900;2023-09-12T09:42:23;10.48;;;8.02;;
21432;SDS011;18592;49.708;10.900;2023-09-12T09:44:24;10.88;;;8.13;;
21432;SDS011;18592;49.708;10.900;2023-09-12T09:57:07;9.35;;;7.75;;
21432;SDS011;18592;49.708;10.900;2023-09-12T09:59:15;8.82;;;7.82;;
21432;SDS011;18592;49.708;10.900;2023-09-12T10:03:22;8.80;;;8.07;;
21432;SDS011;18592;49.708;10.900;2023-09-12T10:05:23;9.55;;;8.43;;
21432;SDS011;18592;49.708;10.900;2023-09-12T10:07:27;8.45;;;7.57;;
21432;SDS011;18592;49.708;10.900;2023-09-12T10:09:29;9.65;;;8.00;;
21432;SDS011;18592;49.708;10.900;2023-09-12T10:11:32;8.77;;;7.90;;
21432;SDS011;18592;49.708;10.900;2023-09-12T10:13:33;9.93;;;8.02;;
21432;SDS011;18592;49.708;10.900;2023-09-12T10:15:37;10.75;;;8.15;;
21432;SDS011;18592;49.708;10.900;2023-09-12T10:17:39;9.20;;;8.20;;
21432;SDS011;18592;49.708;10.900;2023-09-12T10:19:50;8.65;;;7.75;;
21432;SDS011;18592;49.708;10.900;2023-09-12T10:24:07;8.68;;;7.80;;
21432;SDS011;18592;49.708;10.900;2023-09-12T10:26:12;8.88;;;7.22;;
21432;SDS011;18592;49.708;10.900;2023-09-12T10:28:13;8.25;;;7.18;;
21432;SDS011;18592;49.708;10.900;2023-09-12T10:30:14;10.80;;;7.63;;
21432;SDS011;18592;49.708;10.900;2023-09-12T10:32:15;10.27;;;7.45;;
21432;SDS011;18592;49.708;10.900;2023-09-12T10:34:18;8.13;;;7.25;;
21432;SDS011;18592;49.708;10.900;2023-09-12T10:36:26;8.57;;;7.68;;
21432;SDS011;18592;49.708;10.900;2023-09-12T10:38:27;8.20;;;7.40;;
21432;SDS011;18592;49.708;10.900;2023-09-12T10:40:31;8.13;;;7.30;;
21432;SDS011;18592;49.708;10.900;2023-09-12T10:42:35;7.80;;;7.10;;
21432;SDS011;18592;49.708;10.900;2023-09-12T10:44:36;8.50;;;7.10;;
21432;SDS011;18592;49.708;10.900;2023-09-12T10:46:38;7.03;;;6.43;;
21432;SDS011;18592;49.708;10.900;2023-09-12T10:48:39;7.80;;;6.82;;
21432;SDS011;18592;49.708;10.900;2023-09-12T10:50:40;7.70;;;6.88;;
21432;SDS011;18592;49.708;10.900;2023-09-12T10:52:41;7.22;;;6.28;;
21432;SDS011;18592;49.708;10.900;2023-09-12T10:54:42;7.47;;;5.95;;
21432;SDS011;18592;49.708;10.900;2023-09-12T10:56:43;7.22;;;6.47;;
21432;SDS011;18592;49.708;10.900;2023-09-12T11:01:23;7.13;;;6.43;;
21432;SDS011;18592;49.708;10.900;2023-09-12T11:09:32;6.63;;;5.93;;
21432;SDS011;18592;49.708;10.900;2023-09-12T11:11:33;7.93;;;6.70;;
21432;SDS011;18592;49.708;10.900;2023-09-12T11:13:37;7.72;;;7.03;;
21432;SDS011;18592;49.708;10.900;2023-09-12T11:16:12;7.43;;;6.72;;
21432;SDS011;18592;49.708;10.900;2023-09-12T11:18:14;7.55;;;6.75;;
21432;SDS011;18592;49.708;10.900;2023-09-12T11:20:16;7.32;;;6.63;;
21432;SDS011;18592;49.708;10.900;2023-09-12T11:22:26;10.57;;;6.45;;
21432;SDS011;18592;49.708;10.900;2023-09-12T11:24:41;6.97;;;6.28;;
21432;SDS011;18592;49.708;10.900;2023-09-12T11:27:02;7.65;;;6.93;;
21432;SDS011;18592;49.708;10.900;2023-09-12T11:29:11;6.90;;;6.30;;
21432;SDS011;18592;49.708;10.900;2023-09-12T11:31:23;8.30;;;6.63;;
21432;SDS011;18592;49.708;10.900;2023-09-12T11:33:26;9.20;;;7.00;;
21432;SDS011;18592;49.708;10.900;2023-09-12T11:35:28;6.53;;;5.93;;
21432;SDS011;18592;49.708;10.900;2023-09-12T11:37:29;7.32;;;6.28;;
21432;SDS011;18592;49.708;10.900;2023-09-12T11:39:30;7.85;;;7.05;;
21432;SDS011;18592;49.708;10.900;2023-09-12T11:41:39;7.32;;;6.72;;
21432;SDS011;18592;49.708;10.900;2023-09-12T11:43:39;6.47;;;5.88;;
21432;SDS011;18592;49.708;10.900;2023-09-12T11:45:42;6.97;;;6.13;;
21432;SDS011;18592;49.708;10.900;2023-09-12T11:58:29;8.13;;;6.03;;
21432;SDS011;18592;49.708;10.900;2023-09-12T12:11:12;8.50;;;5.72;;
21432;SDS011;18592;49.708;10.900;2023-09-12T12:13:21;7.63;;;6.10;;
21432;SDS011;18592;49.708;10.900;2023-09-12T12:15:22;6.82;;;6.07;;
21432;SDS011;18592;49.708;10.900;2023-09-12T12:17:23;6.22;;;5.43;;
21432;SDS011;18592;49.708;10.900;2023-09-12T12:19:38;7.28;;;6.15;;
21432;SDS011;18592;49.708;10.900;2023-09-12T12:21:40;12.07;;;6.00;;
21432;SDS011;18592;49.708;10.900;2023-09-12T12:23:41;6.65;;;5.95;;
21432;SDS011;18592;49.708;10.900;2023-09-12T12:25:42;7.65;;;6.63;;
21432;SDS011;18592;49.708;10.900;2023-09-12T12:27:42;6.18;;;5.63;;
21432;SDS011;18592;49.708;10.900;2023-09-12T12:29:43;6.70;;;6.00;;
21432;SDS011;18592;49.708;10.900;2023-09-12T12:31:44;6.10;;;5.50;;
21432;SDS011;18592;49.708;10.900;2023-09-12T12:33:57;6.55;;;5.93;;
21432;SDS011;18592;49.708;10.900;2023-09-12T12:36:00;8.18;;;6.60;;
21432;SDS011;18592;49.708;10.900;2023-09-12T12:38:02;6.80;;;5.97;;
21432;SDS011;18592;49.708;10.900;2023-09-12T12:40:02;10.63;;;6.60;;
21432;SDS011;18592;49.708;10.900;2023-09-12T12:42:04;7.00;;;6.40;;
21432;SDS011;18592;49.708;10.900;2023-09-12T12:44:07;9.93;;;6.28;;
21432;SDS011;18592;49.708;10.900;2023-09-12T12:46:10;8.00;;;6.28;;
21432;SDS011;18592;49.708;10.900;2023-09-12T12:48:15;7.80;;;6.18;;
21432;SDS011;18592;49.708;10.900;2023-09-12T12:50:15;7.30;;;6.55;;
21432;SDS011;18592;49.708;10.900;2023-09-12T12:52:33;7.90;;;6.05;;
21432;SDS011;18592;49.708;10.900;2023-09-12T12:54:34;6.55;;;5.95;;
21432;SDS011;18592;49.708;10.900;2023-09-12T13:07:14;7.45;;;6.65;;
21432;SDS011;18592;49.708;10.900;2023-09-12T13:09:15;6.65;;;6.03;;
21432;SDS011;18592;49.708;10.900;2023-09-12T13:11:17;6.57;;;5.97;;
21432;SDS011;18592;49.708;10.900;2023-09-12T13:13:17;8.77;;;6.20;;
21432;SDS011;18592;49.708;10.900;2023-09-12T13:15:17;7.13;;;6.38;;
21432;SDS011;18592;49.708;10.900;2023-09-12T13:17:18;5.97;;;5.40;;
21432;SDS011;18592;49.708;10.900;2023-09-12T13:30:02;6.82;;;6.15;;
21432;SDS011;18592;49.708;10.900;2023-09-12T13:32:05;6.22;;;5.72;;
21432;SDS011;18592;49.708;10.900;2023-09-12T13:34:06;6.63;;;5.75;;
21432;SDS011;18592;49.708;10.900;2023-09-12T13:36:06;6.38;;;5.72;;
21432;SDS011;18592;49.708;10.900;2023-09-12T13:38:07;8.88;;;6.30;;